sensor_id;sensor_type;location;lat;lon;timestamp;temperature;humidity
8684;DHT22;4379;59.744;18.206;2022-10-17T00:00:50;8.70;99.90
8684;DHT22;4379;59.744;18.206;2022-10-17T00:03:18;8.70;99.90
8684;DHT22;4379;59.744;18.206;2022-10-17T00:05:47;8.80;99.90
8684;DHT22;4379;59.744;18.206;2022-10-17T00:08:16;8.80;99.90
8684;DHT22;4379;59.744;18.206;2022-10-17T00:10:44;8.90;99.90
8684;DHT22;4379;59.744;18.206;2022-10-17T00:13:11;8.90;99.90
8684;DHT22;4379;59.744;18.206;2022-10-17T00:15:43;8.90;99.90
8684;DHT22;4379;59.744;18.206;2022-10-17T00:18:11;8.90;99.90
8684;DHT22;4379;59.744;18.206;2022-10-17T00:20:38;8.90;99.90
8684;DHT22;4379;59.744;18.206;2022-10-17T00:23:05;8.90;99.90
8684;DHT22;4379;59.744;18.206;2022-10-17T00:25:32;8.90;99.90
8684;DHT22;4379;59.744;18.206;2022-10-17T00:28:00;9.00;99.90
8684;DHT22;4379;59.744;18.206;2022-10-17T00:30:27;8.90;99.90
8684;DHT22;4379;59.744;18.206;2022-10-17T00:32:54;9.00;99.90
8684;DHT22;4379;59.744;18.206;2022-10-17T00:35:22;9.00;99.90
8684;DHT22;4379;59.744;18.206;2022-10-17T00:37:49;8.90;99.90
8684;DHT22;4379;59.744;18.206;2022-10-17T00:40:16;9.00;99.90
8684;DHT22;4379;59.744;18.206;2022-10-17T00:42:43;8.90;99.90
8684;DHT22;4379;59.744;18.206;2022-10-17T00:45:19;8.90;99.90
8684;DHT22;4379;59.744;18.206;2022-10-17T00:47:52;8.90;99.90
8684;DHT22;4379;59.744;18.206;2022-10-17T00:50:21;8.90;99.90
8684;DHT22;4379;59.744;18.206;2022-10-17T00:52:50;8.90;99.90
8684;DHT22;4379;59.744;18.206;2022-10-17T00:55:24;8.90;99.90
8684;DHT22;4379;59.744;18.206;2022-10-17T00:57:56;9.00;99.90
8684;DHT22;4379;59.744;18.206;2022-10-17T01:00:24;9.00;99.90
8684;DHT22;4379;59.744;18.206;2022-10-17T01:02:51;8.90;99.90
8684;DHT22;4379;59.744;18.206;2022-10-17T01:05:19;8.90;99.90
8684;DHT22;4379;59.744;18.206;2022-10-17T01:07:48;8.90;99.90
8684;DHT22;4379;59.744;18.206;2022-10-17T01:10:18;8.90;99.90
8684;DHT22;4379;59.744;18.206;2022-10-17T01:13:17;9.00;99.90
8684;DHT22;4379;59.744;18.206;2022-10-17T01:16:08;9.00;99.90
8684;DHT22;4379;59.744;18.206;2022-10-17T01:18:50;9.00;99.90
8684;DHT22;4379;59.744;18.206;2022-10-17T01:21:36;9.00;99.90
8684;DHT22;4379;59.744;18.206;2022-10-17T01:26:56;9.00;99.90
8684;DHT22;4379;59.744;18.206;2022-10-17T01:32:41;9.10;99.90
8684;DHT22;4379;59.744;18.206;2022-10-17T01:35:36;9.10;99.90
8684;DHT22;4379;59.744;18.206;2022-10-17T01:38:14;9.00;99.90
8684;DHT22;4379;59.744;18.206;2022-10-17T01:40:49;9.00;99.90
8684;DHT22;4379;59.744;18.206;2022-10-17T01:43:20;9.10;99.90
8684;DHT22;4379;59.744;18.206;2022-10-17T01:45:52;9.00;99.90
8684;DHT22;4379;59.744;18.206;2022-10-17T01:48:23;9.00;99.90
8684;DHT22;4379;59.744;18.206;2022-10-17T01:51:00;8.90;99.90
8684;DHT22;4379;59.744;18.206;2022-10-17T01:53:42;8.90;99.90
8684;DHT22;4379;59.744;18.206;2022-10-17T01:56:13;8.80;99.90
8684;DHT22;4379;59.744;18.206;2022-10-17T01:58:47;8.80;99.90
8684;DHT22;4379;59.744;18.206;2022-10-17T02:01:17;8.70;99.90
8684;DHT22;4379;59.744;18.206;2022-10-17T02:03:46;8.70;99.90
8684;DHT22;4379;59.744;18.206;2022-10-17T02:06:14;8.60;99.90
8684;DHT22;4379;59.744;18.206;2022-10-17T02:08:45;8.50;99.90
8684;DHT22;4379;59.744;18.206;2022-10-17T02:11:18;8.60;99.90
8684;DHT22;4379;59.744;18.206;2022-10-17T02:16:47;8.60;99.90
8684;DHT22;4379;59.744;18.206;2022-10-17T02:24:44;8.60;99.90
8684;DHT22;4379;59.744;18.206;2022-10-17T02:27:19;8.50;99.90
8684;DHT22;4379;59.744;18.206;2022-10-17T02:30:00;8.50;99.90
8684;DHT22;4379;59.744;18.206;2022-10-17T02:32:37;8.50;99.90
8684;DHT22;4379;59.744;18.206;2022-10-17T02:35:07;8.40;99.90
8684;DHT22;4379;59.744;18.206;2022-10-17T02:37:35;8.40;99.90
8684;DHT22;4379;59.744;18.206;2022-10-17T02:40:04;8.30;99.90
8684;DHT22;4379;59.744;18.206;2022-10-17T02:42:33;8.30;99.90
8684;DHT22;4379;59.744;18.206;2022-10-17T02:45:02;8.40;99.90
8684;DHT22;4379;59.744;18.206;2022-10-17T02:47:36;8.40;99.90
8684;DHT22;4379;59.744;18.206;2022-10-17T02:50:06;8.50;99.90
8684;DHT22;4379;59.744;18.206;2022-10-17T02:52:46;8.50;99.90
8684;DHT22;4379;59.744;18.206;2022-10-17T02:55:29;8.50;99.90
8684;DHT22;4379;59.744;18.206;2022-10-17T02:58:07;8.40;99.90
8684;DHT22;4379;59.744;18.206;2022-10-17T03:00:38;8.30;99.90
8684;DHT22;4379;59.744;18.206;2022-10-17T03:03:25;8.30;99.90
8684;DHT22;4379;59.744;18.206;2022-10-17T03:05:53;8.20;99.90
8684;DHT22;4379;59.744;18.206;2022-10-17T03:08:21;8.20;99.90
8684;DHT22;4379;59.744;18.206;2022-10-17T03:10:48;8.10;99.90
8684;DHT22;4379;59.744;18.206;2022-10-17T03:13:16;8.10;99.90
8684;DHT22;4379;59.744;18.206;2022-10-17T03:15:43;8.20;99.90
8684;DHT22;4379;59.744;18.206;2022-10-17T03:18:11;8.10;99.90
8684;DHT22;4379;59.744;18.206;2022-10-17T03:20:38;8.20;99.90
8684;DHT22;4379;59.744;18.206;2022-10-17T03:23:06;8.30;99.90
8684;DHT22;4379;59.744;18.206;2022-10-17T03:25:33;8.30;99.90
8684;DHT22;4379;59.744;18.206;2022-10-17T03:28:00;8.30;99.90
8684;DHT22;4379;59.744;18.206;2022-10-17T03:30:28;8.20;99.90
8684;DHT22;4379;59.744;18.206;2022-10-17T03:32:56;8.20;99.90
8684;DHT22;4379;59.744;18.206;2022-10-17T03:35:25;8.20;99.90
8684;DHT22;4379;59.744;18.206;2022-10-17T03:37:54;8.10;99.90
8684;DHT22;4379;59.744;18.206;2022-10-17T03:40:21;8.10;99.90
8684;DHT22;4379;59.744;18.206;2022-10-17T03:42:49;8.00;99.90
8684;DHT22;4379;59.744;18.206;2022-10-17T03:45:16;8.00;99.90
8684;DHT22;4379;59.744;18.206;2022-10-17T03:47:43;8.00;99.90
8684;DHT22;4379;59.744;18.206;2022-10-17T03:50:11;8.00;99.90
8684;DHT22;4379;59.744;18.206;2022-10-17T03:52:38;8.10;99.90
8684;DHT22;4379;59.744;18.206;2022-10-17T03:55:06;8.00;99.90
8684;DHT22;4379;59.744;18.206;2022-10-17T03:57:34;7.90;99.90
8684;DHT22;4379;59.744;18.206;2022-10-17T04:00:03;7.90;99.90
8684;DHT22;4379;59.744;18.206;2022-10-17T04:02:31;7.90;99.90
8684;DHT22;4379;59.744;18.206;2022-10-17T04:04:58;8.00;99.90
8684;DHT22;4379;59.744;18.206;2022-10-17T04:07:26;7.90;99.90
8684;DHT22;4379;59.744;18.206;2022-10-17T04:09:53;7.90;99.90
8684;DHT22;4379;59.744;18.206;2022-10-17T04:12:20;7.90;99.90
8684;DHT22;4379;59.744;18.206;2022-10-17T04:14:48;7.80;99.90
8684;DHT22;4379;59.744;18.206;2022-10-17T04:17:15;7.80;99.90
8684;DHT22;4379;59.744;18.206;2022-10-17T04:19:42;7.80;99.90
8684;DHT22;4379;59.744;18.206;2022-10-17T04:22:09;7.80;99.90
8684;DHT22;4379;59.744;18.206;2022-10-17T04:24:36;7.80;99.90
8684;DHT22;4379;59.744;18.206;2022-10-17T04:27:04;7.80;99.90
8684;DHT22;4379;59.744;18.206;2022-10-17T04:29:31;7.70;99.90
8684;DHT22;4379;59.744;18.206;2022-10-17T04:31:58;7.70;99.90
8684;DHT22;4379;59.744;18.206;2022-10-17T04:34:26;7.70;99.90
8684;DHT22;4379;59.744;18.206;2022-10-17T04:36:53;7.70;99.90
8684;DHT22;4379;59.744;18.206;2022-10-17T04:39:20;7.70;99.90
8684;DHT22;4379;59.744;18.206;2022-10-17T04:41:48;7.80;99.90
8684;DHT22;4379;59.744;18.206;2022-10-17T04:44:15;7.80;99.90
8684;DHT22;4379;59.744;18.206;2022-10-17T04:46:42;7.80;99.90
8684;DHT22;4379;59.744;18.206;2022-10-17T04:49:09;7.80;99.90
8684;DHT22;4379;59.744;18.206;2022-10-17T04:51:37;7.80;99.90
8684;DHT22;4379;59.744;18.206;2022-10-17T04:54:05;7.80;99.90
8684;DHT22;4379;59.744;18.206;2022-10-17T04:56:32;7.70;99.90
8684;DHT22;4379;59.744;18.206;2022-10-17T04:58:59;7.70;99.90
8684;DHT22;4379;59.744;18.206;2022-10-17T05:01:27;7.60;99.90
8684;DHT22;4379;59.744;18.206;2022-10-17T05:03:54;7.70;99.90
8684;DHT22;4379;59.744;18.206;2022-10-17T05:06:24;7.70;99.90
8684;DHT22;4379;59.744;18.206;2022-10-17T05:08:51;7.70;99.90
8684;DHT22;4379;59.744;18.206;2022-10-17T05:11:21;7.60;99.90
8684;DHT22;4379;59.744;18.206;2022-10-17T05:13:54;7.60;99.90
8684;DHT22;4379;59.744;18.206;2022-10-17T05:16:22;7.60;99.90
8684;DHT22;4379;59.744;18.206;2022-10-17T05:18:51;7.50;99.90
8684;DHT22;4379;59.744;18.206;2022-10-17T05:21:19;7.50;99.90
8684;DHT22;4379;59.744;18.206;2022-10-17T05:23:47;7.50;99.90
8684;DHT22;4379;59.744;18.206;2022-10-17T05:26:14;7.50;99.90
8684;DHT22;4379;59.744;18.206;2022-10-17T05:28:42;7.50;99.90
8684;DHT22;4379;59.744;18.206;2022-10-17T05:31:10;7.40;99.90
8684;DHT22;4379;59.744;18.206;2022-10-17T05:33:38;7.40;99.90
8684;DHT22;4379;59.744;18.206;2022-10-17T05:36:06;7.40;99.90
8684;DHT22;4379;59.744;18.206;2022-10-17T05:38:34;7.30;99.90
8684;DHT22;4379;59.744;18.206;2022-10-17T05:41:03;7.40;99.90
8684;DHT22;4379;59.744;18.206;2022-10-17T05:43:31;7.30;99.90
8684;DHT22;4379;59.744;18.206;2022-10-17T05:46:02;7.30;99.90
8684;DHT22;4379;59.744;18.206;2022-10-17T05:48:30;7.40;99.90
8684;DHT22;4379;59.744;18.206;2022-10-17T05:50:59;7.40;99.90
8684;DHT22;4379;59.744;18.206;2022-10-17T05:53:30;7.30;99.90
8684;DHT22;4379;59.744;18.206;2022-10-17T05:56:01;7.40;99.90
8684;DHT22;4379;59.744;18.206;2022-10-17T05:58:30;7.40;99.90
8684;DHT22;4379;59.744;18.206;2022-10-17T06:01:16;7.40;99.90
8684;DHT22;4379;59.744;18.206;2022-10-17T06:03:43;7.40;99.90
8684;DHT22;4379;59.744;18.206;2022-10-17T06:06:12;7.40;99.90
8684;DHT22;4379;59.744;18.206;2022-10-17T06:08:40;7.40;99.90
8684;DHT22;4379;59.744;18.206;2022-10-17T06:11:07;7.50;99.90
8684;DHT22;4379;59.744;18.206;2022-10-17T06:13:37;7.40;99.90
8684;DHT22;4379;59.744;18.206;2022-10-17T06:16:05;7.40;99.90
8684;DHT22;4379;59.744;18.206;2022-10-17T06:18:33;7.50;99.90
8684;DHT22;4379;59.744;18.206;2022-10-17T06:21:05;7.40;99.90
8684;DHT22;4379;59.744;18.206;2022-10-17T06:23:32;7.40;99.90
8684;DHT22;4379;59.744;18.206;2022-10-17T06:26:01;7.50;99.90
8684;DHT22;4379;59.744;18.206;2022-10-17T06:28:29;7.50;99.90
8684;DHT22;4379;59.744;18.206;2022-10-17T06:30:56;7.50;99.90
8684;DHT22;4379;59.744;18.206;2022-10-17T06:33:23;7.50;99.90
8684;DHT22;4379;59.744;18.206;2022-10-17T06:35:55;7.60;99.90
8684;DHT22;4379;59.744;18.206;2022-10-17T06:38:23;7.60;99.90
8684;DHT22;4379;59.744;18.206;2022-10-17T06:40:50;7.70;99.90
8684;DHT22;4379;59.744;18.206;2022-10-17T06:43:20;7.70;99.90
8684;DHT22;4379;59.744;18.206;2022-10-17T06:45:53;7.80;99.90
8684;DHT22;4379;59.744;18.206;2022-10-17T06:48:21;7.70;99.90
8684;DHT22;4379;59.744;18.206;2022-10-17T06:50:49;7.70;99.90
8684;DHT22;4379;59.744;18.206;2022-10-17T06:53:16;7.80;99.90
8684;DHT22;4379;59.744;18.206;2022-10-17T06:55:43;7.80;99.90
8684;DHT22;4379;59.744;18.206;2022-10-17T06:58:11;7.90;99.90
8684;DHT22;4379;59.744;18.206;2022-10-17T07:00:38;7.80;99.90
8684;DHT22;4379;59.744;18.206;2022-10-17T07:03:06;7.80;99.90
8684;DHT22;4379;59.744;18.206;2022-10-17T07:05:33;7.90;99.90
8684;DHT22;4379;59.744;18.206;2022-10-17T07:08:00;8.00;99.90
8684;DHT22;4379;59.744;18.206;2022-10-17T07:10:28;8.00;99.90
8684;DHT22;4379;59.744;18.206;2022-10-17T07:12:55;8.00;99.90
8684;DHT22;4379;59.744;18.206;2022-10-17T07:15:22;8.10;99.90
8684;DHT22;4379;59.744;18.206;2022-10-17T07:17:51;8.10;99.90
8684;DHT22;4379;59.744;18.206;2022-10-17T07:20:19;8.20;99.90
8684;DHT22;4379;59.744;18.206;2022-10-17T07:22:46;8.30;99.90
8684;DHT22;4379;59.744;18.206;2022-10-17T07:25:13;8.30;99.90
8684;DHT22;4379;59.744;18.206;2022-10-17T07:27:40;8.50;99.90
8684;DHT22;4379;59.744;18.206;2022-10-17T07:30:08;8.70;99.90
8684;DHT22;4379;59.744;18.206;2022-10-17T07:32:36;9.00;99.90
8684;DHT22;4379;59.744;18.206;2022-10-17T07:35:03;9.10;99.90
8684;DHT22;4379;59.744;18.206;2022-10-17T07:37:30;9.30;99.90
8684;DHT22;4379;59.744;18.206;2022-10-17T07:39:58;9.20;99.90
8684;DHT22;4379;59.744;18.206;2022-10-17T07:42:25;9.40;99.90
8684;DHT22;4379;59.744;18.206;2022-10-17T07:44:54;9.40;99.90
8684;DHT22;4379;59.744;18.206;2022-10-17T07:47:21;9.10;99.90
8684;DHT22;4379;59.744;18.206;2022-10-17T07:49:49;9.00;99.90
8684;DHT22;4379;59.744;18.206;2022-10-17T07:52:16;8.80;99.90
8684;DHT22;4379;59.744;18.206;2022-10-17T07:54:43;8.80;99.90
8684;DHT22;4379;59.744;18.206;2022-10-17T07:57:11;8.70;99.90
8684;DHT22;4379;59.744;18.206;2022-10-17T07:59:38;8.80;99.90
8684;DHT22;4379;59.744;18.206;2022-10-17T08:02:05;8.90;99.90
8684;DHT22;4379;59.744;18.206;2022-10-17T08:04:34;8.80;99.90
8684;DHT22;4379;59.744;18.206;2022-10-17T08:07:02;8.90;99.90
8684;DHT22;4379;59.744;18.206;2022-10-17T08:09:46;9.00;99.90
8684;DHT22;4379;59.744;18.206;2022-10-17T08:12:14;9.20;99.90
8684;DHT22;4379;59.744;18.206;2022-10-17T08:14:42;9.10;99.90
8684;DHT22;4379;59.744;18.206;2022-10-17T08:17:09;9.20;99.90
8684;DHT22;4379;59.744;18.206;2022-10-17T08:19:39;9.50;99.90
8684;DHT22;4379;59.744;18.206;2022-10-17T08:22:07;9.70;99.90
8684;DHT22;4379;59.744;18.206;2022-10-17T08:24:34;9.80;99.90
8684;DHT22;4379;59.744;18.206;2022-10-17T08:27:02;9.90;99.90
8684;DHT22;4379;59.744;18.206;2022-10-17T08:29:29;9.60;99.90
8684;DHT22;4379;59.744;18.206;2022-10-17T08:31:58;9.50;99.90
8684;DHT22;4379;59.744;18.206;2022-10-17T08:34:28;9.60;99.90
8684;DHT22;4379;59.744;18.206;2022-10-17T08:36:55;9.70;99.90
8684;DHT22;4379;59.744;18.206;2022-10-17T08:39:23;9.70;99.90
8684;DHT22;4379;59.744;18.206;2022-10-17T08:47:15;10.50;99.90
8684;DHT22;4379;59.744;18.206;2022-10-17T08:49:55;10.50;99.90
8684;DHT22;4379;59.744;18.206;2022-10-17T08:52:51;10.50;99.90
8684;DHT22;4379;59.744;18.206;2022-10-17T08:55:39;10.30;99.90
8684;DHT22;4379;59.744;18.206;2022-10-17T08:58:13;10.40;99.90
8684;DHT22;4379;59.744;18.206;2022-10-17T09:00:47;10.60;99.90
8684;DHT22;4379;59.744;18.206;2022-10-17T09:03:26;10.60;99.90
8684;DHT22;4379;59.744;18.206;2022-10-17T09:06:10;10.70;99.90
8684;DHT22;4379;59.744;18.206;2022-10-17T09:11:47;10.80;99.90
8684;DHT22;4379;59.744;18.206;2022-10-17T09:20:15;10.60;99.90
8684;DHT22;4379;59.744;18.206;2022-10-17T09:25:18;10.40;99.90
8684;DHT22;4379;59.744;18.206;2022-10-17T09:28:11;10.40;99.90
8684;DHT22;4379;59.744;18.206;2022-10-17T09:31:17;10.50;99.90
8684;DHT22;4379;59.744;18.206;2022-10-17T09:33:41;10.50;99.90
8684;DHT22;4379;59.744;18.206;2022-10-17T09:36:33;10.50;99.90
8684;DHT22;4379;59.744;18.206;2022-10-17T09:39:05;10.80;99.90
8684;DHT22;4379;59.744;18.206;2022-10-17T09:41:46;11.10;99.90
8684;DHT22;4379;59.744;18.206;2022-10-17T09:44:24;11.30;99.90
8684;DHT22;4379;59.744;18.206;2022-10-17T09:47:19;11.30;99.90
8684;DHT22;4379;59.744;18.206;2022-10-17T09:49:49;11.00;99.90
8684;DHT22;4379;59.744;18.206;2022-10-17T09:52:39;10.90;99.90
8684;DHT22;4379;59.744;18.206;2022-10-17T09:58:07;10.70;99.90
8684;DHT22;4379;59.744;18.206;2022-10-17T10:01:13;10.90;99.90
8684;DHT22;4379;59.744;18.206;2022-10-17T10:03:45;11.10;99.90
8684;DHT22;4379;59.744;18.206;2022-10-17T10:06:18;11.00;99.90
8684;DHT22;4379;59.744;18.206;2022-10-17T10:08:54;10.90;99.90
8684;DHT22;4379;59.744;18.206;2022-10-17T10:14:29;10.90;99.90
8684;DHT22;4379;59.744;18.206;2022-10-17T10:17:01;10.70;99.90
8684;DHT22;4379;59.744;18.206;2022-10-17T10:19:30;10.80;99.90
8684;DHT22;4379;59.744;18.206;2022-10-17T10:22:03;11.00;99.90
8684;DHT22;4379;59.744;18.206;2022-10-17T10:24:31;11.10;99.90
8684;DHT22;4379;59.744;18.206;2022-10-17T10:27:01;11.20;99.90
8684;DHT22;4379;59.744;18.206;2022-10-17T10:29:41;11.10;99.90
8684;DHT22;4379;59.744;18.206;2022-10-17T10:37:26;11.30;99.90
8684;DHT22;4379;59.744;18.206;2022-10-17T10:40:01;11.40;99.90
8684;DHT22;4379;59.744;18.206;2022-10-17T10:42:31;11.60;99.90
8684;DHT22;4379;59.744;18.206;2022-10-17T10:45:19;11.50;99.90
8684;DHT22;4379;59.744;18.206;2022-10-17T10:48:24;11.70;99.90
8684;DHT22;4379;59.744;18.206;2022-10-17T10:50:59;11.80;99.90
8684;DHT22;4379;59.744;18.206;2022-10-17T10:53:55;12.00;99.90
8684;DHT22;4379;59.744;18.206;2022-10-17T10:59:05;12.30;99.90
8684;DHT22;4379;59.744;18.206;2022-10-17T11:04:29;12.00;99.90
8684;DHT22;4379;59.744;18.206;2022-10-17T11:07:24;12.00;99.90
8684;DHT22;4379;59.744;18.206;2022-10-17T11:12:55;12.00;99.90
8684;DHT22;4379;59.744;18.206;2022-10-17T11:18:29;12.20;99.90
8684;DHT22;4379;59.744;18.206;2022-10-17T11:21:16;12.30;99.90
8684;DHT22;4379;59.744;18.206;2022-10-17T11:23:59;12.50;99.90
8684;DHT22;4379;59.744;18.206;2022-10-17T11:26:40;12.80;99.90
8684;DHT22;4379;59.744;18.206;2022-10-17T11:29:10;12.80;99.90
8684;DHT22;4379;59.744;18.206;2022-10-17T11:31:43;13.00;99.90
8684;DHT22;4379;59.744;18.206;2022-10-17T11:34:26;13.10;99.90
8684;DHT22;4379;59.744;18.206;2022-10-17T11:37:16;12.80;99.90
8684;DHT22;4379;59.744;18.206;2022-10-17T11:39:53;13.00;99.90
8684;DHT22;4379;59.744;18.206;2022-10-17T11:42:30;12.70;99.90
8684;DHT22;4379;59.744;18.206;2022-10-17T11:45:03;12.70;99.90
8684;DHT22;4379;59.744;18.206;2022-10-17T11:47:35;12.70;99.90
8684;DHT22;4379;59.744;18.206;2022-10-17T11:50:28;12.60;99.90
8684;DHT22;4379;59.744;18.206;2022-10-17T11:53:22;12.50;99.90
8684;DHT22;4379;59.744;18.206;2022-10-17T11:55:51;12.50;99.90
8684;DHT22;4379;59.744;18.206;2022-10-17T11:58:44;12.60;99.90
8684;DHT22;4379;59.744;18.206;2022-10-17T12:01:33;12.60;99.90
8684;DHT22;4379;59.744;18.206;2022-10-17T12:12:30;13.00;99.90
8684;DHT22;4379;59.744;18.206;2022-10-17T12:18:02;12.60;99.90
8684;DHT22;4379;59.744;18.206;2022-10-17T12:20:32;12.60;99.90
8684;DHT22;4379;59.744;18.206;2022-10-17T12:26:03;12.60;99.90
8684;DHT22;4379;59.744;18.206;2022-10-17T12:31:09;12.60;99.90
8684;DHT22;4379;59.744;18.206;2022-10-17T12:38:50;12.50;99.90
8684;DHT22;4379;59.744;18.206;2022-10-17T13:00:24;12.20;99.90
8684;DHT22;4379;59.744;18.206;2022-10-17T13:02:55;12.30;99.90
8684;DHT22;4379;59.744;18.206;2022-10-17T13:05:30;12.30;99.90
8684;DHT22;4379;59.744;18.206;2022-10-17T13:08:01;12.40;99.90
8684;DHT22;4379;59.744;18.206;2022-10-17T13:10:32;12.40;99.90
8684;DHT22;4379;59.744;18.206;2022-10-17T13:13:51;12.30;99.90
8684;DHT22;4379;59.744;18.206;2022-10-17T13:15:53;12.20;99.90
8684;DHT22;4379;59.744;18.206;2022-10-17T13:18:23;12.20;99.90
8684;DHT22;4379;59.744;18.206;2022-10-17T13:21:06;12.20;99.90
8684;DHT22;4379;59.744;18.206;2022-10-17T13:23:39;12.20;99.90
8684;DHT22;4379;59.744;18.206;2022-10-17T13:26:17;12.00;99.90
8684;DHT22;4379;59.744;18.206;2022-10-17T13:29:08;12.10;99.90
8684;DHT22;4379;59.744;18.206;2022-10-17T13:31:39;12.10;99.90
8684;DHT22;4379;59.744;18.206;2022-10-17T13:34:21;12.20;99.90
8684;DHT22;4379;59.744;18.206;2022-10-17T13:36:54;12.10;99.90
8684;DHT22;4379;59.744;18.206;2022-10-17T13:39:24;11.90;99.90
8684;DHT22;4379;59.744;18.206;2022-10-17T13:42:28;11.90;99.90
8684;DHT22;4379;59.744;18.206;2022-10-17T13:44:58;11.80;99.90
8684;DHT22;4379;59.744;18.206;2022-10-17T13:47:28;11.80;99.90
8684;DHT22;4379;59.744;18.206;2022-10-17T13:49:57;11.80;99.90
8684;DHT22;4379;59.744;18.206;2022-10-17T13:52:27;11.70;99.90
8684;DHT22;4379;59.744;18.206;2022-10-17T13:55:06;11.50;99.90
8684;DHT22;4379;59.744;18.206;2022-10-17T13:57:34;11.50;99.90
8684;DHT22;4379;59.744;18.206;2022-10-17T14:00:06;11.50;99.90
8684;DHT22;4379;59.744;18.206;2022-10-17T14:02:40;11.40;99.90
8684;DHT22;4379;59.744;18.206;2022-10-17T14:05:17;11.30;99.90
8684;DHT22;4379;59.744;18.206;2022-10-17T14:07:52;11.30;99.90
8684;DHT22;4379;59.744;18.206;2022-10-17T14:10:41;11.20;99.90
8684;DHT22;4379;59.744;18.206;2022-10-17T14:13:28;11.30;99.90
8684;DHT22;4379;59.744;18.206;2022-10-17T14:15:59;11.20;99.90
8684;DHT22;4379;59.744;18.206;2022-10-17T14:18:34;11.20;99.90
8684;DHT22;4379;59.744;18.206;2022-10-17T14:21:03;11.30;99.90
8684;DHT22;4379;59.744;18.206;2022-10-17T14:24:11;11.30;99.90
8684;DHT22;4379;59.744;18.206;2022-10-17T14:26:57;11.20;99.90
8684;DHT22;4379;59.744;18.206;2022-10-17T14:29:31;11.10;99.90
8684;DHT22;4379;59.744;18.206;2022-10-17T14:32:06;11.00;99.90
8684;DHT22;4379;59.744;18.206;2022-10-17T14:34:39;11.00;99.90
8684;DHT22;4379;59.744;18.206;2022-10-17T14:40:04;10.80;99.90
8684;DHT22;4379;59.744;18.206;2022-10-17T14:42:37;10.90;99.90
8684;DHT22;4379;59.744;18.206;2022-10-17T14:45:07;10.90;99.90
8684;DHT22;4379;59.744;18.206;2022-10-17T14:47:40;11.00;99.90
8684;DHT22;4379;59.744;18.206;2022-10-17T14:52:38;11.10;99.90
8684;DHT22;4379;59.744;18.206;2022-10-17T14:55:24;11.00;99.90
8684;DHT22;4379;59.744;18.206;2022-10-17T14:57:52;10.90;99.90
8684;DHT22;4379;59.744;18.206;2022-10-17T15:00:20;10.70;99.90
8684;DHT22;4379;59.744;18.206;2022-10-17T15:02:49;10.60;99.90
8684;DHT22;4379;59.744;18.206;2022-10-17T15:05:17;10.50;99.90
8684;DHT22;4379;59.744;18.206;2022-10-17T15:07:46;10.40;99.90
8684;DHT22;4379;59.744;18.206;2022-10-17T15:10:24;10.40;99.90
8684;DHT22;4379;59.744;18.206;2022-10-17T15:12:52;10.40;99.90
8684;DHT22;4379;59.744;18.206;2022-10-17T15:15:31;10.30;99.90
8684;DHT22;4379;59.744;18.206;2022-10-17T15:17:59;10.40;99.90
8684;DHT22;4379;59.744;18.206;2022-10-17T15:20:27;10.30;99.90
8684;DHT22;4379;59.744;18.206;2022-10-17T15:22:58;10.30;99.90
8684;DHT22;4379;59.744;18.206;2022-10-17T15:25:27;10.30;99.90
8684;DHT22;4379;59.744;18.206;2022-10-17T15:27:55;10.30;99.90
8684;DHT22;4379;59.744;18.206;2022-10-17T15:30:34;10.30;99.90
8684;DHT22;4379;59.744;18.206;2022-10-17T15:33:02;10.30;99.90
8684;DHT22;4379;59.744;18.206;2022-10-17T15:35:30;10.30;99.90
8684;DHT22;4379;59.744;18.206;2022-10-17T15:37:57;10.20;99.90
8684;DHT22;4379;59.744;18.206;2022-10-17T15:40:27;10.30;99.90
8684;DHT22;4379;59.744;18.206;2022-10-17T15:42:55;10.20;99.90
8684;DHT22;4379;59.744;18.206;2022-10-17T15:45:23;10.20;99.90
8684;DHT22;4379;59.744;18.206;2022-10-17T15:47:53;10.20;99.90
8684;DHT22;4379;59.744;18.206;2022-10-17T15:50:21;10.20;99.90
8684;DHT22;4379;59.744;18.206;2022-10-17T15:52:49;10.10;99.90
8684;DHT22;4379;59.744;18.206;2022-10-17T15:55:17;10.10;99.90
8684;DHT22;4379;59.744;18.206;2022-10-17T15:57:47;10.10;99.90
8684;DHT22;4379;59.744;18.206;2022-10-17T16:00:20;10.10;99.90
8684;DHT22;4379;59.744;18.206;2022-10-17T16:02:48;10.00;99.90
8684;DHT22;4379;59.744;18.206;2022-10-17T16:05:21;10.00;99.90
8684;DHT22;4379;59.744;18.206;2022-10-17T16:07:49;9.90;99.90
8684;DHT22;4379;59.744;18.206;2022-10-17T16:10:18;9.90;99.90
8684;DHT22;4379;59.744;18.206;2022-10-17T16:12:45;9.90;99.90
8684;DHT22;4379;59.744;18.206;2022-10-17T16:15:25;9.80;99.90
8684;DHT22;4379;59.744;18.206;2022-10-17T16:17:55;9.80;99.90
8684;DHT22;4379;59.744;18.206;2022-10-17T16:20:23;9.80;99.90
8684;DHT22;4379;59.744;18.206;2022-10-17T16:22:52;9.80;99.90
8684;DHT22;4379;59.744;18.206;2022-10-17T16:25:27;9.80;99.90
8684;DHT22;4379;59.744;18.206;2022-10-17T16:27:57;9.90;99.90
8684;DHT22;4379;59.744;18.206;2022-10-17T16:30:26;9.90;99.90
8684;DHT22;4379;59.744;18.206;2022-10-17T16:32:54;9.90;99.90
8684;DHT22;4379;59.744;18.206;2022-10-17T16:35:25;10.00;99.90
8684;DHT22;4379;59.744;18.206;2022-10-17T16:37:53;9.90;99.90
8684;DHT22;4379;59.744;18.206;2022-10-17T16:40:20;9.90;99.90
8684;DHT22;4379;59.744;18.206;2022-10-17T16:42:48;9.90;99.90
8684;DHT22;4379;59.744;18.206;2022-10-17T16:45:18;9.90;99.90
8684;DHT22;4379;59.744;18.206;2022-10-17T16:47:46;9.90;99.90
8684;DHT22;4379;59.744;18.206;2022-10-17T16:50:14;9.80;99.90
8684;DHT22;4379;59.744;18.206;2022-10-17T16:52:42;9.70;99.90
8684;DHT22;4379;59.744;18.206;2022-10-17T16:55:09;9.60;99.90
8684;DHT22;4379;59.744;18.206;2022-10-17T16:57:37;9.50;99.90
8684;DHT22;4379;59.744;18.206;2022-10-17T17:00:05;9.50;99.90
8684;DHT22;4379;59.744;18.206;2022-10-17T17:02:33;9.60;99.90
8684;DHT22;4379;59.744;18.206;2022-10-17T17:05:00;9.50;99.90
8684;DHT22;4379;59.744;18.206;2022-10-17T17:07:28;9.50;99.90
8684;DHT22;4379;59.744;18.206;2022-10-17T17:09:56;9.50;99.90
8684;DHT22;4379;59.744;18.206;2022-10-17T17:12:23;9.40;99.90
8684;DHT22;4379;59.744;18.206;2022-10-17T17:14:51;9.50;99.90
8684;DHT22;4379;59.744;18.206;2022-10-17T17:17:18;9.50;99.90
8684;DHT22;4379;59.744;18.206;2022-10-17T17:20:06;9.40;99.90
8684;DHT22;4379;59.744;18.206;2022-10-17T17:22:33;9.40;99.90
8684;DHT22;4379;59.744;18.206;2022-10-17T17:25:00;9.40;99.90
8684;DHT22;4379;59.744;18.206;2022-10-17T17:27:28;9.40;99.90
8684;DHT22;4379;59.744;18.206;2022-10-17T17:29:55;9.40;99.90
8684;DHT22;4379;59.744;18.206;2022-10-17T17:32:23;9.40;99.90
8684;DHT22;4379;59.744;18.206;2022-10-17T17:34:50;9.40;99.90
8684;DHT22;4379;59.744;18.206;2022-10-17T17:37:18;9.40;99.90
8684;DHT22;4379;59.744;18.206;2022-10-17T17:39:45;9.40;99.90
8684;DHT22;4379;59.744;18.206;2022-10-17T17:42:12;9.30;99.90
8684;DHT22;4379;59.744;18.206;2022-10-17T17:44:39;9.30;99.90
8684;DHT22;4379;59.744;18.206;2022-10-17T17:47:06;9.40;99.90
8684;DHT22;4379;59.744;18.206;2022-10-17T17:49:34;9.40;99.90
8684;DHT22;4379;59.744;18.206;2022-10-17T17:52:01;9.50;99.90
8684;DHT22;4379;59.744;18.206;2022-10-17T17:54:28;9.50;99.90
8684;DHT22;4379;59.744;18.206;2022-10-17T17:56:55;9.50;99.90
8684;DHT22;4379;59.744;18.206;2022-10-17T17:59:22;9.50;99.90
8684;DHT22;4379;59.744;18.206;2022-10-17T18:01:50;9.50;99.90
8684;DHT22;4379;59.744;18.206;2022-10-17T18:04:17;9.40;99.90
8684;DHT22;4379;59.744;18.206;2022-10-17T18:06:45;9.50;99.90